N6622M KELM-KALB
Flight info
| Callsign | N6622M |
|---|---|
| Flight time | N/A |
| Altitude | 17500 |
| Route | MILID ALB |
| Aircraft | B58T/L-SBDFGRY/S |
Departure
| Time | N/A |
|---|---|
| Airport | Elmira Corning Regional Airport (KELM) |
Arrival
| Time | 2026-04-27 14:27 |
|---|---|
| Airport | Albany International Airport (KALB) |
| Time | Latitude | Longitude | Altitude | Speed | Heading |
|---|---|---|---|---|---|
| 2026-04-27 14:07 | 42.53352 | -74.90529 | 17486 ft | 203 kts | 68° |
| 2026-04-27 14:07 | 42.53517 | -74.89704 | 17485 ft | 203 kts | 68° |
| 2026-04-27 14:08 | 42.53890 | -74.87854 | 17393 ft | 207 kts | 68° |
| 2026-04-27 14:08 | 42.54271 | -74.85975 | 17134 ft | 211 kts | 68° |
| 2026-04-27 14:08 | 42.54654 | -74.84048 | 16877 ft | 212 kts | 69° |
| 2026-04-27 14:08 | 42.55035 | -74.82115 | 16621 ft | 212 kts | 69° |
| 2026-04-27 14:09 | 42.55417 | -74.80178 | 16371 ft | 213 kts | 69° |
| 2026-04-27 14:09 | 42.55798 | -74.78237 | 16127 ft | 213 kts | 69° |
| 2026-04-27 14:09 | 42.56166 | -74.76291 | 15880 ft | 214 kts | 75° |
| 2026-04-27 14:09 | 42.56007 | -74.74250 | 15628 ft | 223 kts | 101° |
| 2026-04-27 14:10 | 42.55497 | -74.72251 | 15388 ft | 224 kts | 105° |
| 2026-04-27 14:10 | 42.54930 | -74.70281 | 15142 ft | 224 kts | 107° |
| 2026-04-27 14:10 | 42.54434 | -74.68296 | 14892 ft | 219 kts | 98° |
| 2026-04-27 14:10 | 42.54203 | -74.66279 | 14653 ft | 215 kts | 91° |
| 2026-04-27 14:11 | 42.54088 | -74.64268 | 14417 ft | 213 kts | 89° |
| 2026-04-27 14:11 | 42.54010 | -74.62263 | 14178 ft | 212 kts | 88° |
| 2026-04-27 14:11 | 42.53952 | -74.60270 | 13920 ft | 211 kts | 88° |
| 2026-04-27 14:11 | 42.53902 | -74.58286 | 13656 ft | 210 kts | 88° |
| 2026-04-27 14:12 | 42.53861 | -74.56308 | 13397 ft | 210 kts | 88° |
| 2026-04-27 14:12 | 42.53823 | -74.54337 | 13128 ft | 209 kts | 88° |
| 2026-04-27 14:12 | 42.53789 | -74.52371 | 12867 ft | 208 kts | 88° |
| 2026-04-27 14:12 | 42.53758 | -74.50409 | 12611 ft | 207 kts | 88° |
| 2026-04-27 14:13 | 42.53733 | -74.48459 | 12355 ft | 207 kts | 88° |
| 2026-04-27 14:13 | 42.53715 | -74.46518 | 12098 ft | 206 kts | 87° |
| 2026-04-27 14:13 | 42.53700 | -74.44577 | 11848 ft | 205 kts | 87° |
| 2026-04-27 14:13 | 42.53688 | -74.42672 | 11607 ft | 205 kts | 87° |
| 2026-04-27 14:14 | 42.53678 | -74.40743 | 11364 ft | 204 kts | 88° |
| 2026-04-27 14:14 | 42.53671 | -74.38819 | 11115 ft | 203 kts | 87° |
| 2026-04-27 14:14 | 42.53671 | -74.36901 | 10872 ft | 203 kts | 87° |
| 2026-04-27 14:14 | 42.53673 | -74.34997 | 10628 ft | 202 kts | 87° |
| 2026-04-27 14:15 | 42.53680 | -74.33096 | 10403 ft | 202 kts | 86° |
| 2026-04-27 14:15 | 42.53687 | -74.31194 | 10152 ft | 201 kts | 87° |
| 2026-04-27 14:15 | 42.53699 | -74.29305 | 9878 ft | 199 kts | 87° |
| 2026-04-27 14:15 | 42.53712 | -74.27460 | 9615 ft | 192 kts | 87° |
| 2026-04-27 14:16 | 42.53728 | -74.25677 | 9342 ft | 186 kts | 87° |
| 2026-04-27 14:16 | 42.53748 | -74.23942 | 9090 ft | 182 kts | 87° |
| 2026-04-27 14:16 | 42.53770 | -74.22234 | 8847 ft | 180 kts | 87° |
| 2026-04-27 14:16 | 42.53795 | -74.20551 | 8596 ft | 177 kts | 86° |
| 2026-04-27 14:17 | 42.53825 | -74.18892 | 8337 ft | 175 kts | 87° |
| 2026-04-27 14:17 | 42.53854 | -74.17249 | 8085 ft | 173 kts | 87° |
| 2026-04-27 14:17 | 42.53887 | -74.15620 | 7837 ft | 172 kts | 87° |
| 2026-04-27 14:17 | 42.53923 | -74.14006 | 7598 ft | 171 kts | 87° |
| 2026-04-27 14:18 | 42.53959 | -74.12422 | 7344 ft | 169 kts | 87° |
| 2026-04-27 14:18 | 42.54002 | -74.10833 | 7103 ft | 168 kts | 87° |
| 2026-04-27 14:18 | 42.54047 | -74.09253 | 6865 ft | 167 kts | 87° |
| 2026-04-27 14:18 | 42.54097 | -74.07689 | 6634 ft | 166 kts | 87° |
| 2026-04-27 14:19 | 42.54145 | -74.06136 | 6372 ft | 164 kts | 87° |
| 2026-04-27 14:19 | 42.54194 | -74.04590 | 6123 ft | 164 kts | 87° |
| 2026-04-27 14:19 | 42.54240 | -74.03050 | 5861 ft | 163 kts | 87° |
| 2026-04-27 14:19 | 42.54284 | -74.01517 | 5601 ft | 162 kts | 87° |
| 2026-04-27 14:20 | 42.54324 | -73.99981 | 5367 ft | 162 kts | 87° |
| 2026-04-27 14:20 | 42.54361 | -73.98478 | 5112 ft | 161 kts | 87° |
| 2026-04-27 14:20 | 42.54425 | -73.96970 | 4858 ft | 160 kts | 78° |
| 2026-04-27 14:20 | 42.54917 | -73.95618 | 4647 ft | 161 kts | 60° |
| 2026-04-27 14:21 | 42.55509 | -73.94332 | 4389 ft | 160 kts | 58° |
| 2026-04-27 14:21 | 42.56123 | -73.93064 | 4135 ft | 160 kts | 57° |
| 2026-04-27 14:21 | 42.56747 | -73.91803 | 3937 ft | 163 kts | 58° |
| 2026-04-27 14:21 | 42.57385 | -73.90539 | 3725 ft | 161 kts | 57° |
| 2026-04-27 14:22 | 42.58014 | -73.89305 | 3474 ft | 157 kts | 57° |
| 2026-04-27 14:22 | 42.58735 | -73.88216 | 3218 ft | 156 kts | 42° |
| 2026-04-27 14:22 | 42.59584 | -73.87317 | 3060 ft | 157 kts | 39° |
| 2026-04-27 14:22 | 42.60459 | -73.86444 | 2807 ft | 156 kts | 38° |
| 2026-04-27 14:23 | 42.61331 | -73.85590 | 2677 ft | 156 kts | 38° |
| 2026-04-27 14:23 | 42.62197 | -73.84732 | 2522 ft | 153 kts | 37° |
| 2026-04-27 14:23 | 42.63054 | -73.83891 | 2313 ft | 151 kts | 37° |
| 2026-04-27 14:23 | 42.63901 | -73.83060 | 2122 ft | 150 kts | 37° |
| 2026-04-27 14:24 | 42.64728 | -73.82234 | 1916 ft | 144 kts | 37° |
| 2026-04-27 14:24 | 42.65558 | -73.81509 | 1776 ft | 140 kts | 35° |
| 2026-04-27 14:24 | 42.66346 | -73.80756 | 1588 ft | 137 kts | 30° |
| 2026-04-27 14:24 | 42.67235 | -73.80321 | 1380 ft | 136 kts | 11° |
| 2026-04-27 14:25 | 42.68143 | -73.80210 | 1332 ft | 126 kts | 1° |
| 2026-04-27 14:25 | 42.68988 | -73.80220 | 1321 ft | 118 kts | 359° |
| 2026-04-27 14:25 | 42.69815 | -73.80259 | 1201 ft | 121 kts | 358° |
| 2026-04-27 14:25 | 42.70664 | -73.80299 | 1051 ft | 122 kts | 358° |
| 2026-04-27 14:26 | 42.71501 | -73.80332 | 881 ft | 119 kts | 357° |
| 2026-04-27 14:26 | 42.72331 | -73.80368 | 714 ft | 119 kts | 356° |
| 2026-04-27 14:26 | 42.73141 | -73.80395 | 486 ft | 110 kts | 358° |
| 2026-04-27 14:26 | 42.73840 | -73.80427 | 289 ft | 92 kts | 356° |
| 2026-04-27 14:27 | 42.74365 | -73.80460 | 285 ft | 62 kts | 356° |
| 2026-04-27 14:27 | 42.74573 | -73.80469 | 283 ft | 10 kts | 336° |
| 2026-04-27 14:27 | 42.74603 | -73.80539 | 283 ft | 8 kts | 275° |
| 2026-04-27 14:27 | 42.74580 | -73.80600 | 282 ft | 7 kts | 202° |
| 2026-04-27 14:28 | 42.74534 | -73.80607 | 282 ft | 6 kts | 179° |
| 2026-04-27 14:28 | 42.74476 | -73.80607 | 283 ft | 11 kts | 179° |
| 2026-04-27 14:28 | 42.74388 | -73.80602 | 283 ft | 13 kts | 179° |
| 2026-04-27 14:28 | 42.74306 | -73.80598 | 283 ft | 11 kts | 179° |
| 2026-04-27 14:29 | 42.74227 | -73.80596 | 284 ft | 13 kts | 179° |
| 2026-04-27 14:29 | 42.74140 | -73.80592 | 284 ft | 12 kts | 177° |
| 2026-04-27 14:29 | 42.74066 | -73.80588 | 285 ft | 10 kts | 179° |
| 2026-04-27 14:29 | 42.74009 | -73.80619 | 285 ft | 9 kts | 243° |
| 2026-04-27 14:30 | 42.73961 | -73.80648 | 285 ft | 7 kts | 179° |
| 2026-04-27 14:30 | 42.73913 | -73.80658 | 285 ft | 7 kts | 209° |
| 2026-04-27 14:30 | 42.73892 | -73.80721 | 286 ft | 6 kts | 267° |
| 2026-04-27 14:30 | 42.73892 | -73.80727 | 286 ft | 0 kts | 268° |